createdAt,value
2016-12-24T00:00:26.076Z,0
2016-12-24T00:01:26.099Z,0
2016-12-24T00:02:26.094Z,0
2016-12-24T00:03:26.215Z,0
2016-12-24T00:04:26.131Z,0
2016-12-24T00:05:26.147Z,0
2016-12-24T00:06:26.163Z,0
2016-12-24T00:07:26.193Z,0
2016-12-24T00:08:26.189Z,0
2016-12-24T00:09:26.565Z,0
2016-12-24T00:10:26.206Z,0
2016-12-24T00:11:26.232Z,0
2016-12-24T00:12:26.244Z,0
2016-12-24T00:13:26.268Z,0
2016-12-24T00:14:26.277Z,0
2016-12-24T00:15:26.318Z,0
2016-12-24T00:16:26.297Z,0
2016-12-24T00:17:26.316Z,0
2016-12-24T00:18:26.337Z,0
2016-12-24T00:19:26.361Z,0
2016-12-24T00:20:26.367Z,0
2016-12-24T00:21:26.379Z,0
2016-12-24T00:22:26.437Z,0
2016-12-24T00:23:26.405Z,0
2016-12-24T00:24:26.413Z,0
2016-12-24T00:25:26.444Z,0
2016-12-24T00:26:26.469Z,0
2016-12-24T00:27:26.465Z,0
2016-12-24T00:28:26.468Z,0
2016-12-24T00:29:26.485Z,0
2016-12-24T00:30:26.513Z,0
2016-12-24T00:31:26.520Z,0
2016-12-24T00:32:26.544Z,0
2016-12-24T00:33:26.548Z,0
2016-12-24T00:34:26.568Z,0
2016-12-24T00:35:26.577Z,0
2016-12-24T00:36:26.582Z,0
2016-12-24T00:37:26.602Z,0
2016-12-24T00:38:26.620Z,0
2016-12-24T00:39:26.652Z,0
2016-12-24T00:40:26.674Z,0
2016-12-24T00:41:26.667Z,0
2016-12-24T00:42:26.682Z,0
2016-12-24T00:43:26.701Z,0
2016-12-24T00:44:26.708Z,0
2016-12-24T00:45:26.741Z,0
2016-12-24T00:46:26.748Z,0
2016-12-24T00:47:26.757Z,0
2016-12-24T00:48:26.761Z,0
2016-12-24T00:49:26.801Z,0
2016-12-24T00:50:26.797Z,0
2016-12-24T00:51:26.822Z,0
2016-12-24T00:52:26.821Z,0
2016-12-24T00:53:26.862Z,0
2016-12-24T00:54:26.846Z,0
2016-12-24T00:55:26.878Z,0
2016-12-24T00:56:26.886Z,0
2016-12-24T00:57:26.952Z,0
2016-12-24T00:58:26.908Z,0
2016-12-24T00:59:26.925Z,0
2016-12-24T01:00:26.931Z,0
2016-12-24T01:01:26.967Z,0
2016-12-24T01:02:26.968Z,0
2016-12-24T01:03:26.986Z,0
2016-12-24T01:04:27.009Z,0
2016-12-24T01:05:27.010Z,0
2016-12-24T01:06:27.031Z,0
2016-12-24T01:07:27.062Z,0
2016-12-24T01:08:27.065Z,0
2016-12-24T01:09:27.094Z,0
2016-12-24T01:10:27.088Z,0
2016-12-24T01:11:27.112Z,0
2016-12-24T01:12:27.114Z,0
2016-12-24T01:13:27.171Z,0
2016-12-24T01:14:27.139Z,0
2016-12-24T01:15:27.194Z,0
2016-12-24T01:16:27.166Z,0
2016-12-24T01:17:27.187Z,0
2016-12-24T01:18:27.213Z,0
2016-12-24T01:19:27.241Z,0
2016-12-24T01:20:27.239Z,0
2016-12-24T01:21:27.286Z,0
2016-12-24T01:22:27.255Z,0
2016-12-24T01:23:27.272Z,0
2016-12-24T01:24:27.280Z,0
2016-12-24T01:25:27.309Z,0
2016-12-24T01:26:27.331Z,0
2016-12-24T01:27:27.333Z,0
2016-12-24T01:28:27.338Z,0
2016-12-24T01:29:27.384Z,0
2016-12-24T01:30:27.380Z,0
2016-12-24T01:31:27.407Z,0
2016-12-24T01:32:27.416Z,0
2016-12-24T01:33:27.422Z,0
2016-12-24T01:34:27.450Z,0
2016-12-24T01:35:27.459Z,0
2016-12-24T01:36:27.473Z,0
2016-12-24T01:37:27.493Z,0
2016-12-24T01:38:27.492Z,0
2016-12-24T01:39:27.510Z,0
2016-12-24T01:40:27.523Z,0
2016-12-24T01:41:27.538Z,0
2016-12-24T01:42:27.557Z,0
2016-12-24T01:43:27.585Z,0
2016-12-24T01:44:27.574Z,0
2016-12-24T01:45:27.603Z,0
2016-12-24T01:46:27.609Z,0
2016-12-24T01:47:27.632Z,0
2016-12-24T01:48:27.637Z,0
2016-12-24T01:49:27.673Z,0
2016-12-24T01:50:27.674Z,0
2016-12-24T01:51:27.691Z,0
2016-12-24T01:52:27.709Z,0
2016-12-24T01:53:27.733Z,0
2016-12-24T01:54:27.736Z,0
2016-12-24T01:55:27.758Z,0
2016-12-24T01:56:27.759Z,0
2016-12-24T01:57:27.771Z,0
2016-12-24T01:58:27.777Z,0
2016-12-24T01:59:27.821Z,0
2016-12-24T02:00:27.810Z,0
2016-12-24T02:01:27.839Z,0
2016-12-24T02:02:27.840Z,0
2016-12-24T02:03:27.872Z,0
2016-12-24T02:04:27.872Z,0
2016-12-24T02:05:27.912Z,0
2016-12-24T02:06:27.898Z,0
2016-12-24T02:07:27.916Z,0
2016-12-24T02:08:27.934Z,0
2016-12-24T02:09:27.948Z,0
2016-12-24T02:10:27.961Z,0
2016-12-24T02:11:27.976Z,0
2016-12-24T02:12:27.986Z,0
2016-12-24T02:13:28.017Z,0
2016-12-24T02:14:28.036Z,0
2016-12-24T02:15:28.044Z,0
2016-12-24T02:16:28.035Z,0
2016-12-24T02:17:28.082Z,0
2016-12-24T02:18:28.071Z,0
2016-12-24T02:19:28.097Z,0
2016-12-24T02:20:28.097Z,0
2016-12-24T02:21:28.130Z,0
2016-12-24T02:22:28.131Z,0
2016-12-24T02:23:28.148Z,0
2016-12-24T02:24:28.168Z,0
2016-12-24T02:25:28.181Z,0
2016-12-24T02:26:28.200Z,0
2016-12-24T02:27:28.540Z,0
2016-12-24T02:28:28.215Z,0
2016-12-24T02:29:28.234Z,0
2016-12-24T02:30:28.261Z,0
2016-12-24T02:31:28.284Z,0
2016-12-24T02:32:28.275Z,0
2016-12-24T02:33:28.315Z,0
2016-12-24T02:34:28.307Z,0
2016-12-24T02:35:28.331Z,0
2016-12-24T02:36:28.347Z,0
2016-12-24T02:37:28.676Z,0
2016-12-24T02:38:28.369Z,0
2016-12-24T02:39:28.376Z,0
2016-12-24T02:40:28.403Z,0
2016-12-24T02:41:28.450Z,0
2016-12-24T02:42:28.411Z,0
2016-12-24T02:43:28.445Z,0
2016-12-24T02:44:28.454Z,0
2016-12-24T02:45:28.490Z,0
2016-12-24T02:46:28.479Z,0
2016-12-24T02:47:28.512Z,0
2016-12-24T02:48:28.507Z,0
2016-12-24T02:49:28.525Z,0
2016-12-24T02:50:28.541Z,0
2016-12-24T02:51:28.580Z,0
2016-12-24T02:52:28.566Z,0
2016-12-24T02:53:28.591Z,0
2016-12-24T02:54:28.608Z,0
2016-12-24T02:55:28.622Z,0
2016-12-24T02:56:28.637Z,0
2016-12-24T02:57:28.665Z,0
2016-12-24T02:58:28.657Z,0
2016-12-24T02:59:28.673Z,0
2016-12-24T03:00:28.679Z,0
2016-12-24T03:01:29.042Z,0
2016-12-24T03:02:28.715Z,0
2016-12-24T03:03:28.728Z,0
2016-12-24T03:04:28.747Z,0
2016-12-24T03:05:28.768Z,0
2016-12-24T03:06:28.792Z,0
2016-12-24T03:07:28.788Z,0
2016-12-24T03:08:28.834Z,0
2016-12-24T03:09:28.822Z,0
2016-12-24T03:10:28.839Z,0
2016-12-24T03:11:28.849Z,0
2016-12-24T03:12:28.872Z,0
2016-12-24T03:13:28.899Z,0
2016-12-24T03:14:28.892Z,0
2016-12-24T03:15:28.909Z,0
2016-12-24T03:16:28.939Z,0
2016-12-24T03:17:28.943Z,0
2016-12-24T03:18:28.949Z,0
2016-12-24T03:19:28.977Z,0
2016-12-24T03:20:28.986Z,0
2016-12-24T03:21:29.009Z,0
2016-12-24T03:22:29.009Z,0
2016-12-24T03:23:29.023Z,0
2016-12-24T03:24:29.045Z,0
2016-12-24T03:25:29.043Z,0
2016-12-24T03:26:29.068Z,0
2016-12-24T03:27:29.084Z,0
2016-12-24T03:28:29.096Z,0
2016-12-24T03:29:29.119Z,0
2016-12-24T03:30:29.136Z,0
2016-12-24T03:31:29.151Z,0
2016-12-24T03:32:29.167Z,0
2016-12-24T03:33:29.178Z,0
2016-12-24T03:34:29.185Z,0
2016-12-24T03:35:29.215Z,0
2016-12-24T03:36:29.227Z,0
2016-12-24T03:37:29.246Z,0
2016-12-24T03:38:29.232Z,0
2016-12-24T03:39:29.256Z,0
2016-12-24T03:40:29.301Z,0
2016-12-24T03:41:29.299Z,0
2016-12-24T03:42:29.311Z,0
2016-12-24T03:43:29.312Z,0
2016-12-24T03:44:29.348Z,0
2016-12-24T03:45:29.353Z,0
2016-12-24T03:46:29.375Z,0
2016-12-24T03:47:29.391Z,0
2016-12-24T03:48:29.387Z,0
2016-12-24T03:49:29.418Z,0
2016-12-24T03:50:29.429Z,0
2016-12-24T03:51:29.446Z,0
2016-12-24T03:52:29.448Z,0
2016-12-24T03:53:29.504Z,0
2016-12-24T03:54:29.508Z,0
2016-12-24T03:55:29.507Z,0
2016-12-24T03:56:29.503Z,0
2016-12-24T03:57:29.539Z,0
2016-12-24T03:58:29.544Z,0
2016-12-24T03:59:29.557Z,0
2016-12-24T04:01:29.557Z,0
2016-12-24T04:02:29.578Z,0
2016-12-24T04:03:29.592Z,0
2016-12-24T04:04:29.619Z,0
2016-12-24T04:05:29.626Z,0
2016-12-24T04:06:29.635Z,0
2016-12-24T04:07:29.648Z,0
2016-12-24T04:08:29.689Z,0
2016-12-24T04:09:29.672Z,0
2016-12-24T04:10:29.702Z,0
2016-12-24T04:11:29.709Z,0
2016-12-24T04:12:29.713Z,0
2016-12-24T04:13:29.736Z,0
2016-12-24T04:14:29.763Z,0
2016-12-24T04:15:29.773Z,0
2016-12-24T04:16:29.801Z,0
2016-12-24T04:17:29.797Z,0
2016-12-24T04:18:29.807Z,0
2016-12-24T04:19:29.846Z,0
2016-12-24T04:20:29.827Z,0
2016-12-24T04:21:29.861Z,0
2016-12-24T04:22:29.864Z,0
2016-12-24T04:23:29.882Z,0
2016-12-24T04:24:29.895Z,0
2016-12-24T04:25:29.928Z,0
2016-12-24T04:26:29.942Z,0
2016-12-24T04:27:29.948Z,0
2016-12-24T04:28:29.959Z,0
2016-12-24T04:29:29.978Z,0
2016-12-24T04:30:29.987Z,0
2016-12-24T04:31:29.999Z,0
2016-12-24T04:32:30.021Z,0
2016-12-24T04:33:30.041Z,0
2016-12-24T04:34:30.042Z,0
2016-12-24T04:35:30.069Z,0
2016-12-24T04:36:30.081Z,0
2016-12-24T04:37:30.103Z,0
2016-12-24T04:38:30.105Z,0
2016-12-24T04:39:30.129Z,0
2016-12-24T04:40:30.139Z,0
2016-12-24T04:41:30.146Z,0
2016-12-24T04:42:30.194Z,0
2016-12-24T04:43:30.190Z,0
2016-12-24T04:44:30.188Z,0
2016-12-24T04:45:30.209Z,0
2016-12-24T04:46:30.221Z,0
2016-12-24T04:47:30.248Z,0
2016-12-24T04:48:30.259Z,0
2016-12-24T04:49:30.252Z,0
2016-12-24T04:50:30.281Z,0
2016-12-24T04:51:30.305Z,0
2016-12-24T04:52:30.326Z,0
2016-12-24T04:53:30.333Z,0
2016-12-24T04:54:30.345Z,0
2016-12-24T04:55:30.360Z,0
2016-12-24T04:56:30.380Z,0
2016-12-24T04:57:30.396Z,0
2016-12-24T04:58:30.404Z,0
2016-12-24T04:59:30.420Z,0
2016-12-24T05:00:30.460Z,0
2016-12-24T05:01:30.433Z,0
2016-12-24T05:02:30.457Z,0
2016-12-24T05:03:30.471Z,0
2016-12-24T05:04:30.489Z,0
2016-12-24T05:05:30.493Z,0
2016-12-24T05:06:30.521Z,0
2016-12-24T05:07:30.544Z,0
2016-12-24T05:08:30.543Z,0
2016-12-24T05:09:30.580Z,0
2016-12-24T05:10:30.572Z,0
2016-12-24T05:11:30.590Z,0
2016-12-24T05:12:30.601Z,0
2016-12-24T05:13:30.632Z,0
2016-12-24T05:14:30.629Z,0
2016-12-24T05:15:30.655Z,0
2016-12-24T05:16:30.670Z,0
2016-12-24T05:17:30.692Z,0
2016-12-24T05:18:30.690Z,0
2016-12-24T05:19:30.715Z,0
2016-12-24T05:20:30.720Z,0
2016-12-24T05:21:30.756Z,0
2016-12-24T05:22:30.754Z,0
2016-12-24T05:23:30.757Z,0
2016-12-24T05:24:30.780Z,0
2016-12-24T05:25:30.827Z,0
2016-12-24T05:26:30.811Z,0
2016-12-24T05:27:30.853Z,0
2016-12-24T05:28:30.836Z,0
2016-12-24T05:29:30.861Z,0
2016-12-24T05:30:30.864Z,0
2016-12-24T05:31:30.895Z,0
2016-12-24T05:32:30.926Z,0
2016-12-24T05:33:30.998Z,0
2016-12-24T05:34:30.940Z,0
2016-12-24T05:35:30.953Z,0
2016-12-24T05:36:30.971Z,0
2016-12-24T05:37:30.979Z,0
2016-12-24T05:38:30.991Z,0
2016-12-24T05:39:31.021Z,0
2016-12-24T05:40:31.104Z,0
2016-12-24T05:41:31.035Z,0
2016-12-24T05:42:31.041Z,0
2016-12-24T05:43:31.076Z,0
2016-12-24T05:44:31.079Z,0
2016-12-24T05:45:31.135Z,0
2016-12-24T05:46:31.106Z,0
2016-12-24T05:47:31.126Z,0
2016-12-24T05:48:31.135Z,0
2016-12-24T05:49:31.187Z,0
2016-12-24T05:50:31.172Z,0
2016-12-24T05:51:31.181Z,0
2016-12-24T05:52:31.203Z,0
2016-12-24T05:53:31.221Z,0
2016-12-24T05:54:31.223Z,0
2016-12-24T05:55:31.240Z,0
2016-12-24T05:56:31.255Z,0
2016-12-24T05:57:31.290Z,0
2016-12-24T05:58:31.280Z,0
2016-12-24T05:59:31.306Z,0
2016-12-24T06:00:31.314Z,0
2016-12-24T06:01:31.330Z,0
2016-12-24T06:02:31.347Z,0
2016-12-24T06:03:31.368Z,0
2016-12-24T06:04:31.378Z,0
2016-12-24T06:05:31.413Z,0
2016-12-24T06:06:31.393Z,0
2016-12-24T06:07:31.436Z,0
2016-12-24T06:08:31.472Z,0
2016-12-24T06:09:31.443Z,0
2016-12-24T06:10:31.463Z,0
2016-12-24T06:11:31.804Z,0
2016-12-24T06:12:31.491Z,0
2016-12-24T06:13:31.508Z,0
2016-12-24T06:14:31.531Z,0
2016-12-24T06:15:31.557Z,0
2016-12-24T06:16:31.551Z,0
2016-12-24T06:17:31.580Z,0
2016-12-24T06:18:31.581Z,0
2016-12-24T06:19:31.607Z,0
2016-12-24T06:20:31.617Z,0
2016-12-24T06:21:31.635Z,0
2016-12-24T06:22:31.637Z,0
2016-12-24T06:23:31.670Z,0
2016-12-24T06:24:31.666Z,0
2016-12-24T06:25:31.703Z,0
2016-12-24T06:26:31.715Z,0
2016-12-24T06:27:31.729Z,0
2016-12-24T06:28:31.725Z,0
2016-12-24T06:29:31.761Z,0
2016-12-24T06:30:31.761Z,0
2016-12-24T06:31:31.799Z,0
2016-12-24T06:32:31.809Z,0
2016-12-24T06:33:31.825Z,0
2016-12-24T06:34:31.832Z,0
2016-12-24T06:35:31.842Z,0
2016-12-24T06:36:31.852Z,0
2016-12-24T06:37:31.881Z,0
2016-12-24T06:38:31.879Z,0
2016-12-24T06:39:31.901Z,0
2016-12-24T06:40:31.900Z,0
2016-12-24T06:41:31.919Z,0
2016-12-24T06:42:31.945Z,0
2016-12-24T06:43:31.954Z,0
2016-12-24T06:44:31.961Z,0
2016-12-24T06:45:31.989Z,0
2016-12-24T06:46:31.994Z,0
2016-12-24T06:47:32.027Z,0
2016-12-24T06:48:32.032Z,0
2016-12-24T06:49:32.054Z,0
2016-12-24T06:50:32.058Z,0
2016-12-24T06:51:32.086Z,0
2016-12-24T06:52:32.121Z,0
2016-12-24T06:53:32.113Z,0
2016-12-24T06:54:32.114Z,0
2016-12-24T06:55:32.143Z,0
2016-12-24T06:56:32.140Z,0
2016-12-24T06:57:32.165Z,0
2016-12-24T06:58:32.182Z,0
2016-12-24T06:59:32.186Z,0
2016-12-24T07:00:32.204Z,0
2016-12-24T07:01:32.231Z,0
2016-12-24T07:02:32.237Z,0
2016-12-24T07:03:32.266Z,0
2016-12-24T07:04:32.267Z,0
2016-12-24T07:05:32.300Z,0
2016-12-24T07:06:32.294Z,0
2016-12-24T07:07:32.328Z,0
2016-12-24T07:08:32.342Z,0
2016-12-24T07:09:32.344Z,0
2016-12-24T07:10:32.360Z,0
2016-12-24T07:11:32.379Z,0
2016-12-24T07:12:32.379Z,0
2016-12-24T07:13:32.413Z,0
2016-12-24T07:14:32.429Z,0
2016-12-24T07:15:32.427Z,0
2016-12-24T07:16:32.446Z,0
2016-12-24T07:17:32.456Z,0
2016-12-24T07:18:32.473Z,0
2016-12-24T07:19:32.507Z,0
2016-12-24T07:20:32.513Z,0
2016-12-24T07:21:32.527Z,0
2016-12-24T07:22:32.532Z,0
2016-12-24T07:23:32.871Z,0
2016-12-24T07:24:32.566Z,0
2016-12-24T07:25:32.583Z,0
2016-12-24T07:26:32.584Z,0
2016-12-24T07:27:32.606Z,0
2016-12-24T07:28:32.625Z,0
2016-12-24T07:29:32.635Z,0
2016-12-24T07:30:32.655Z,0
2016-12-24T07:31:32.743Z,0
2016-12-24T07:32:32.685Z,0
2016-12-24T07:33:32.789Z,0
2016-12-24T07:34:32.719Z,0
2016-12-24T07:35:33.059Z,0
2016-12-24T07:36:32.738Z,0
2016-12-24T07:37:32.767Z,0
2016-12-24T07:38:32.772Z,0
2016-12-24T07:39:32.802Z,0
2016-12-24T07:40:32.802Z,0
2016-12-24T07:41:32.818Z,0
2016-12-24T07:42:32.836Z,0
2016-12-24T07:43:32.866Z,0
2016-12-24T07:44:32.858Z,0
2016-12-24T07:45:32.870Z,5
2016-12-24T07:46:32.883Z,5
2016-12-24T07:47:32.923Z,5
2016-12-24T07:48:32.917Z,5
2016-12-24T07:49:33.268Z,5
2016-12-24T07:50:32.947Z,5
2016-12-24T07:51:32.985Z,5
2016-12-24T07:52:32.995Z,0
2016-12-24T07:53:32.998Z,0
2016-12-24T07:54:33.020Z,5
2016-12-24T07:55:33.039Z,5
2016-12-24T07:56:33.120Z,5
2016-12-24T07:57:33.065Z,5
2016-12-24T07:58:33.065Z,5
2016-12-24T07:59:33.095Z,5
2016-12-24T08:00:33.100Z,5
2016-12-24T08:01:33.118Z,5
2016-12-24T08:02:33.131Z,5
2016-12-24T08:03:33.151Z,5
2016-12-24T08:04:33.168Z,5
2016-12-24T08:05:33.170Z,5
2016-12-24T08:06:33.282Z,5
2016-12-24T08:07:33.206Z,5
2016-12-24T08:08:33.219Z,5
2016-12-24T08:09:33.221Z,5
2016-12-24T08:10:33.239Z,10
2016-12-24T08:11:33.260Z,10
2016-12-24T08:12:33.273Z,15
2016-12-24T08:13:33.292Z,15
2016-12-24T08:14:33.340Z,15
2016-12-24T08:15:33.326Z,15
2016-12-24T08:16:33.335Z,15
2016-12-24T08:17:33.355Z,15
2016-12-24T08:18:33.372Z,15
2016-12-24T08:19:33.382Z,15
2016-12-24T08:20:33.395Z,15
2016-12-24T08:21:33.412Z,15
2016-12-24T08:22:33.426Z,20
2016-12-24T08:23:33.437Z,20
2016-12-24T08:24:33.455Z,20
2016-12-24T08:25:33.475Z,20
2016-12-24T08:26:33.489Z,20
2016-12-24T08:27:33.505Z,20
2016-12-24T08:28:33.523Z,20
2016-12-24T08:29:33.538Z,20
2016-12-24T08:30:33.536Z,20
2016-12-24T08:31:33.592Z,20
2016-12-24T08:32:33.602Z,20
2016-12-24T08:33:33.611Z,20
2016-12-24T08:34:33.612Z,20
2016-12-24T08:35:33.630Z,20
2016-12-24T08:36:33.629Z,20
2016-12-24T08:37:33.647Z,25
2016-12-24T08:38:33.668Z,25
2016-12-24T08:39:33.678Z,25
2016-12-24T08:40:33.693Z,25
2016-12-24T08:41:33.703Z,30
2016-12-24T08:42:33.733Z,30
2016-12-24T08:43:33.741Z,30
2016-12-24T08:44:33.758Z,30
2016-12-24T08:45:33.778Z,30
2016-12-24T08:46:33.784Z,30
2016-12-24T08:47:33.801Z,30
2016-12-24T08:48:33.816Z,30
2016-12-24T08:49:33.838Z,25
2016-12-24T08:50:33.848Z,25
2016-12-24T08:51:33.864Z,25
2016-12-24T08:52:33.878Z,25
2016-12-24T08:53:33.889Z,25
2016-12-24T08:54:33.990Z,25
2016-12-24T08:55:33.931Z,25
2016-12-24T08:56:33.936Z,25
2016-12-24T08:57:33.954Z,30
2016-12-24T08:58:33.966Z,35
2016-12-24T08:59:33.980Z,30
2016-12-24T09:00:33.997Z,35
2016-12-24T09:01:34.017Z,35
2016-12-24T09:02:34.031Z,35
2016-12-24T09:03:34.039Z,35
2016-12-24T09:04:34.053Z,35
2016-12-24T09:05:34.089Z,35
2016-12-24T09:06:34.079Z,35
2016-12-24T09:07:34.099Z,35
2016-12-24T09:08:34.110Z,35
2016-12-24T09:09:34.122Z,30
2016-12-24T09:10:34.142Z,30
2016-12-24T09:11:34.166Z,30
2016-12-24T09:12:34.205Z,35
2016-12-24T09:13:34.198Z,40
2016-12-24T09:14:34.206Z,40
2016-12-24T09:15:34.223Z,35
2016-12-24T09:16:34.235Z,30
2016-12-24T09:17:34.253Z,30
2016-12-24T09:18:34.273Z,35
2016-12-24T09:19:34.286Z,35
2016-12-24T09:20:34.292Z,35
2016-12-24T09:21:34.313Z,35
2016-12-24T09:22:34.326Z,35
2016-12-24T09:23:34.366Z,35
2016-12-24T09:24:34.359Z,35
2016-12-24T09:25:34.381Z,30
2016-12-24T09:26:34.401Z,30
2016-12-24T09:27:34.422Z,35
2016-12-24T09:28:34.416Z,45
2016-12-24T09:29:34.448Z,45
2016-12-24T09:30:34.452Z,50
2016-12-24T09:31:34.485Z,45
2016-12-24T09:32:34.483Z,35
2016-12-24T09:33:34.512Z,30
2016-12-24T09:34:34.509Z,25
2016-12-24T09:35:34.541Z,25
2016-12-24T09:36:34.559Z,25
2016-12-24T09:37:34.581Z,20
2016-12-24T09:38:34.565Z,20
2016-12-24T09:39:34.590Z,20
2016-12-24T09:40:34.602Z,20
2016-12-24T09:41:34.638Z,25
2016-12-24T09:42:34.628Z,20
2016-12-24T09:43:34.660Z,25
2016-12-24T09:44:34.655Z,25
2016-12-24T09:45:34.679Z,35
2016-12-24T09:46:34.697Z,40
2016-12-24T09:47:34.720Z,50
2016-12-24T09:48:34.734Z,50
2016-12-24T09:49:34.744Z,50
2016-12-24T09:50:34.761Z,50
2016-12-24T09:51:34.774Z,50
2016-12-24T09:52:34.789Z,50
2016-12-24T09:53:34.787Z,50
2016-12-24T09:54:34.820Z,50
2016-12-24T09:55:34.834Z,55
2016-12-24T09:56:34.846Z,65
2016-12-24T09:57:34.919Z,60
2016-12-24T09:58:34.880Z,60
2016-12-24T09:59:34.893Z,55
2016-12-24T10:00:34.909Z,55
2016-12-24T10:01:34.930Z,55
2016-12-24T10:02:34.935Z,50
2016-12-24T10:03:34.957Z,55
2016-12-24T10:04:34.960Z,65
2016-12-24T10:05:34.980Z,75
2016-12-24T10:06:35.000Z,75
2016-12-24T10:07:35.021Z,80
2016-12-24T10:08:35.033Z,80
2016-12-24T10:09:35.047Z,75
2016-12-24T10:10:35.064Z,65
2016-12-24T10:11:35.064Z,65
2016-12-24T10:12:35.084Z,65
2016-12-24T10:13:35.106Z,60
2016-12-24T10:14:35.113Z,65
2016-12-24T10:15:35.133Z,60
2016-12-24T10:16:35.167Z,55
2016-12-24T10:17:35.174Z,50
2016-12-24T10:18:35.175Z,45
2016-12-24T10:19:35.201Z,45
2016-12-24T10:20:35.217Z,50
2016-12-24T10:21:35.239Z,40
2016-12-24T10:22:35.232Z,40
2016-12-24T10:23:35.254Z,35
2016-12-24T10:24:35.277Z,35
2016-12-24T10:25:35.299Z,35
2016-12-24T10:26:35.308Z,40
2016-12-24T10:27:35.359Z,50
2016-12-24T10:28:35.337Z,50
2016-12-24T10:29:35.348Z,60
2016-12-24T10:30:35.403Z,70
2016-12-24T10:31:35.376Z,65
2016-12-24T10:32:35.410Z,60
2016-12-24T10:33:35.424Z,65
2016-12-24T10:34:35.430Z,65
2016-12-24T10:35:35.451Z,70
2016-12-24T10:36:35.455Z,70
2016-12-24T10:37:35.477Z,85
2016-12-24T10:38:35.486Z,90
2016-12-24T10:39:35.514Z,80
2016-12-24T10:40:35.534Z,80
2016-12-24T10:41:35.535Z,80
2016-12-24T10:42:35.565Z,75
2016-12-24T10:43:35.570Z,75
2016-12-24T10:44:35.583Z,80
2016-12-24T10:45:35.599Z,85
2016-12-24T10:46:35.611Z,80
2016-12-24T10:47:35.632Z,75
2016-12-24T10:48:35.650Z,75
2016-12-24T10:49:35.672Z,85
2016-12-24T10:50:35.686Z,95
2016-12-24T10:51:35.694Z,90
2016-12-24T10:52:35.711Z,80
2016-12-24T10:53:35.718Z,75
2016-12-24T10:54:35.748Z,75
2016-12-24T10:55:35.751Z,75
2016-12-24T10:56:35.778Z,80
2016-12-24T10:57:35.787Z,85
2016-12-24T10:58:35.800Z,90
2016-12-24T10:59:35.832Z,80
2016-12-24T11:00:35.837Z,90
2016-12-24T11:01:35.854Z,90
2016-12-24T11:02:35.858Z,90
2016-12-24T11:03:35.891Z,100
2016-12-24T11:04:35.888Z,130
2016-12-24T11:05:35.951Z,135
2016-12-24T11:06:35.951Z,140
2016-12-24T11:07:35.955Z,145
2016-12-24T11:08:35.957Z,145
2016-12-24T11:09:35.979Z,150
2016-12-24T11:10:35.980Z,145
2016-12-24T11:11:36.010Z,115
2016-12-24T11:12:36.037Z,90
2016-12-24T11:13:36.046Z,90
2016-12-24T11:14:36.054Z,80
2016-12-24T11:15:36.071Z,60
2016-12-24T11:16:36.080Z,50
2016-12-24T11:17:36.095Z,50
2016-12-24T11:18:36.126Z,55
2016-12-24T11:19:36.131Z,65
2016-12-24T11:20:36.151Z,70
2016-12-24T11:21:36.157Z,70
2016-12-24T11:22:36.178Z,70
2016-12-24T11:23:36.206Z,70
2016-12-24T11:24:36.199Z,60
2016-12-24T11:25:36.237Z,55
2016-12-24T11:26:36.242Z,60
2016-12-24T11:27:36.259Z,65
2016-12-24T11:28:36.271Z,75
2016-12-24T11:29:36.293Z,75
2016-12-24T11:30:36.310Z,70
2016-12-24T11:31:36.320Z,65
2016-12-24T11:32:36.336Z,65
2016-12-24T11:33:36.349Z,70
2016-12-24T11:34:36.363Z,90
2016-12-24T11:35:36.377Z,105
2016-12-24T11:36:36.423Z,100
2016-12-24T11:37:36.400Z,90
2016-12-24T11:38:36.427Z,95
2016-12-24T11:39:36.434Z,100
2016-12-24T11:40:36.462Z,100
2016-12-24T11:41:36.476Z,95
2016-12-24T11:42:36.489Z,75
2016-12-24T11:43:36.501Z,75
2016-12-24T11:44:36.518Z,75
2016-12-24T11:45:36.549Z,80
2016-12-24T11:46:36.551Z,80
2016-12-24T11:47:36.563Z,75
2016-12-24T11:48:36.576Z,80
2016-12-24T11:49:36.609Z,75
2016-12-24T11:50:36.614Z,70
2016-12-24T11:51:36.640Z,70
2016-12-24T11:52:36.654Z,70
2016-12-24T11:53:36.661Z,65
2016-12-24T11:54:36.673Z,60
2016-12-24T11:55:36.697Z,60
2016-12-24T11:56:36.713Z,60
2016-12-24T11:57:36.720Z,60
2016-12-24T11:58:36.740Z,50
2016-12-24T11:59:36.743Z,40
2016-12-24T12:00:36.775Z,35
2016-12-24T12:01:36.799Z,30
2016-12-24T12:02:36.808Z,25
2016-12-24T12:03:36.820Z,25
2016-12-24T12:04:36.836Z,25
2016-12-24T12:05:36.927Z,25
2016-12-24T12:06:36.884Z,25
2016-12-24T12:07:36.878Z,30
2016-12-24T12:08:36.914Z,30
2016-12-24T12:09:36.930Z,30
2016-12-24T12:10:36.933Z,35
2016-12-24T12:11:36.941Z,30
2016-12-24T12:12:36.965Z,35
2016-12-24T12:13:36.974Z,35
2016-12-24T12:14:36.991Z,40
2016-12-24T12:15:36.998Z,45
2016-12-24T12:16:37.025Z,45
2016-12-24T12:17:37.038Z,50
2016-12-24T12:18:37.051Z,60
2016-12-24T12:19:37.064Z,85
2016-12-24T12:20:37.081Z,105
2016-12-24T12:21:37.106Z,120
2016-12-24T12:22:37.153Z,120
2016-12-24T12:23:37.135Z,120
2016-12-24T12:24:37.146Z,130
2016-12-24T12:25:37.160Z,125
2016-12-24T12:26:37.179Z,130
2016-12-24T12:27:37.193Z,120
2016-12-24T12:28:37.210Z,120
2016-12-24T12:29:37.239Z,135
2016-12-24T12:30:37.239Z,115
2016-12-24T12:31:37.256Z,125
2016-12-24T12:32:37.276Z,105
2016-12-24T12:33:37.309Z,105
2016-12-24T12:34:37.315Z,110
2016-12-24T12:35:37.313Z,120
2016-12-24T12:36:37.340Z,120
2016-12-24T12:37:37.341Z,120
2016-12-24T12:38:37.383Z,105
2016-12-24T12:39:37.383Z,120
2016-12-24T12:40:37.388Z,115
2016-12-24T12:41:37.407Z,105
2016-12-24T12:42:37.419Z,100
2016-12-24T12:43:37.448Z,100
2016-12-24T12:44:37.465Z,100
2016-12-24T12:45:37.473Z,95
2016-12-24T12:46:37.485Z,95
2016-12-24T12:47:37.498Z,95
2016-12-24T12:48:37.532Z,100
2016-12-24T12:49:37.534Z,95
2016-12-24T12:50:37.553Z,90
2016-12-24T12:51:37.558Z,90
2016-12-24T12:52:37.576Z,95
2016-12-24T12:53:37.590Z,100
2016-12-24T12:54:37.613Z,105
2016-12-24T12:55:37.642Z,105
2016-12-24T12:56:37.650Z,110
2016-12-24T12:57:37.661Z,100
2016-12-24T12:58:37.682Z,110
2016-12-24T12:59:37.715Z,105
2016-12-24T13:00:37.720Z,100
2016-12-24T13:01:37.725Z,100
2016-12-24T13:02:37.745Z,100
2016-12-24T13:03:37.756Z,100
2016-12-24T13:04:37.780Z,105
2016-12-24T13:05:37.780Z,110
2016-12-24T13:06:37.795Z,100
2016-12-24T13:07:37.828Z,115
2016-12-24T13:08:37.843Z,115
2016-12-24T13:09:37.860Z,125
2016-12-24T13:10:37.870Z,115
2016-12-24T13:11:37.898Z,110
2016-12-24T13:12:37.888Z,110
2016-12-24T13:13:37.948Z,100
2016-12-24T13:14:37.929Z,90
2016-12-24T13:15:37.949Z,70
2016-12-24T13:16:37.967Z,55
2016-12-24T13:17:37.968Z,50
2016-12-24T13:18:38.000Z,45
2016-12-24T13:19:38.001Z,45
2016-12-24T13:20:38.028Z,50
2016-12-24T13:21:38.041Z,40
2016-12-24T13:22:38.069Z,40
2016-12-24T13:23:38.074Z,30
2016-12-24T13:24:38.095Z,25
2016-12-24T13:25:38.192Z,15
2016-12-24T13:26:38.119Z,15
2016-12-24T13:27:38.137Z,15
2016-12-24T13:28:38.157Z,15
2016-12-24T13:29:38.169Z,15
2016-12-24T13:30:38.186Z,15
2016-12-24T13:31:38.207Z,20
2016-12-24T13:32:38.215Z,20
2016-12-24T13:33:38.235Z,15
2016-12-24T13:34:38.250Z,15
2016-12-24T13:35:38.269Z,20
2016-12-24T13:36:38.283Z,15
2016-12-24T13:37:38.301Z,15
2016-12-24T13:38:38.308Z,15
2016-12-24T13:39:38.330Z,15
2016-12-24T13:40:38.343Z,15
2016-12-24T13:41:38.359Z,15
2016-12-24T13:42:38.384Z,15
2016-12-24T13:43:38.395Z,15
2016-12-24T13:44:38.405Z,15
2016-12-24T13:45:38.419Z,15
2016-12-24T13:46:38.430Z,20
2016-12-24T13:47:38.462Z,20
2016-12-24T13:48:38.463Z,20
2016-12-24T13:49:38.484Z,20
2016-12-24T13:50:38.504Z,15
2016-12-24T13:51:38.588Z,15
2016-12-24T13:52:38.532Z,15
2016-12-24T13:53:38.544Z,15
2016-12-24T13:54:38.561Z,15
2016-12-24T13:55:38.570Z,15
2016-12-24T13:56:38.586Z,20
2016-12-24T13:57:38.593Z,15
2016-12-24T13:58:38.614Z,15
2016-12-24T13:59:38.639Z,15
2016-12-24T14:00:38.650Z,15
2016-12-24T14:01:38.667Z,15
2016-12-24T14:02:38.678Z,15
2016-12-24T14:03:38.704Z,15
2016-12-24T14:04:38.703Z,15
2016-12-24T14:05:38.716Z,15
2016-12-24T14:06:38.745Z,15
2016-12-24T14:07:38.754Z,15
2016-12-24T14:08:38.778Z,15
2016-12-24T14:09:38.788Z,15
2016-12-24T14:10:38.797Z,10
2016-12-24T14:11:38.816Z,10
2016-12-24T14:12:38.841Z,5
2016-12-24T14:13:38.848Z,5
2016-12-24T14:14:38.893Z,5
2016-12-24T14:15:38.870Z,5
2016-12-24T14:16:38.895Z,5
2016-12-24T14:17:38.900Z,5
2016-12-24T14:18:38.924Z,5
2016-12-24T14:19:38.944Z,5
2016-12-24T14:20:38.944Z,0
2016-12-24T14:21:38.967Z,0
2016-12-24T14:22:38.984Z,0
2016-12-24T14:23:39.002Z,0
2016-12-24T14:24:39.024Z,0
2016-12-24T14:25:39.020Z,0
2016-12-24T14:26:39.037Z,0
2016-12-24T14:27:39.057Z,0
2016-12-24T14:28:39.073Z,0
2016-12-24T14:29:39.099Z,0
2016-12-24T14:30:39.101Z,0
2016-12-24T14:31:39.132Z,0
2016-12-24T14:32:39.128Z,0